createdAt,value
2018-06-28T00:00:57.692Z,6.40
2018-06-28T00:03:25.012Z,8.40
2018-06-28T00:05:52.305Z,6.73
2018-06-28T00:08:19.596Z,6.17
2018-06-28T00:10:46.885Z,7.20
2018-06-28T00:13:14.531Z,6.03
2018-06-28T00:15:42.061Z,6.40
2018-06-28T00:18:09.363Z,6.27
2018-06-28T00:20:36.647Z,7.77
2018-06-28T00:23:03.954Z,7.03
2018-06-28T00:25:31.219Z,6.13
2018-06-28T00:27:58.480Z,6.50
2018-06-28T00:30:38.343Z,5.73
2018-06-28T00:33:05.660Z,9.57
2018-06-28T00:35:32.919Z,6.00
2018-06-28T00:38:00.179Z,5.50
2018-06-28T00:40:27.436Z,5.77
2018-06-28T00:42:54.703Z,8.07
2018-06-28T00:45:21.991Z,5.73
2018-06-28T00:47:49.296Z,6.77
2018-06-28T00:50:16.553Z,11.73
2018-06-28T00:52:43.990Z,7.30
2018-06-28T00:55:11.296Z,6.83
2018-06-28T00:57:38.562Z,13.03
2018-06-28T01:00:06.122Z,6.20
2018-06-28T01:02:33.399Z,5.83
2018-06-28T01:05:00.973Z,6.23
2018-06-28T01:07:28.379Z,7.13
2018-06-28T01:09:55.640Z,6.10
2018-06-28T01:12:22.913Z,6.33
2018-06-28T01:14:50.235Z,6.97
2018-06-28T01:17:17.488Z,5.93
2018-06-28T01:19:44.878Z,6.83
2018-06-28T01:22:12.133Z,6.40
2018-06-28T01:24:39.430Z,6.07
2018-06-28T01:27:06.715Z,7.37
2018-06-28T01:29:34.009Z,9.07
2018-06-28T01:32:01.293Z,6.27
2018-06-28T01:34:28.558Z,5.90
2018-06-28T01:36:55.871Z,7.40
2018-06-28T01:39:23.143Z,7.50
2018-06-28T01:42:01.944Z,7.10
2018-06-28T01:44:29.220Z,6.80
2018-06-28T01:46:56.476Z,6.33
2018-06-28T01:49:23.767Z,6.80
2018-06-28T01:51:50.987Z,7.57
2018-06-28T01:54:18.314Z,6.30
2018-06-28T01:56:45.560Z,7.80
2018-06-28T01:59:12.850Z,7.10
2018-06-28T02:01:40.209Z,7.00
2018-06-28T02:04:07.463Z,6.63
2018-06-28T02:06:34.783Z,6.30
2018-06-28T02:09:02.164Z,7.03
2018-06-28T02:11:29.460Z,7.03
2018-06-28T02:13:56.744Z,6.77
2018-06-28T02:16:24.033Z,7.13
2018-06-28T02:18:51.380Z,6.77
2018-06-28T02:21:19.038Z,6.33
2018-06-28T02:23:46.255Z,7.07
2018-06-28T02:26:13.548Z,6.30
2018-06-28T02:28:40.827Z,6.73
2018-06-28T02:31:08.133Z,6.80
2018-06-28T02:33:35.410Z,6.67
2018-06-28T02:36:02.768Z,6.30
2018-06-28T02:38:30.081Z,6.93
2018-06-28T02:40:57.393Z,6.77
2018-06-28T02:43:24.703Z,6.60
2018-06-28T02:45:51.990Z,6.40
2018-06-28T02:48:19.244Z,6.13
2018-06-28T02:50:46.572Z,5.60
2018-06-28T02:53:13.932Z,7.10
2018-06-28T02:55:41.241Z,6.30
2018-06-28T02:58:08.567Z,5.87
2018-06-28T03:00:35.865Z,5.93
2018-06-28T03:03:03.143Z,7.07
2018-06-28T03:05:30.400Z,6.23
2018-06-28T03:07:57.680Z,6.43
2018-06-28T03:10:25.045Z,5.90
2018-06-28T03:12:53.180Z,5.70
2018-06-28T03:15:20.496Z,6.50
2018-06-28T03:17:47.824Z,6.47
2018-06-28T03:20:15.180Z,5.80
2018-06-28T03:22:42.464Z,5.97
2018-06-28T03:25:09.781Z,6.77
2018-06-28T03:27:37.047Z,6.50
2018-06-28T03:30:04.483Z,6.47
2018-06-28T03:32:31.748Z,5.87
2018-06-28T03:34:59.026Z,6.77
2018-06-28T03:37:26.318Z,10.17
2018-06-28T03:39:53.603Z,13.33
2018-06-28T03:42:20.855Z,6.37
2018-06-28T03:44:48.669Z,6.47
2018-06-28T03:47:15.888Z,7.20
2018-06-28T03:49:43.356Z,9.73
2018-06-28T03:52:10.667Z,10.13
2018-06-28T03:54:37.962Z,10.17
2018-06-28T03:57:05.172Z,7.03
2018-06-28T03:59:32.408Z,7.40
2018-06-28T04:01:59.623Z,6.83
2018-06-28T04:04:27.031Z,6.50
2018-06-28T04:06:54.954Z,6.77
2018-06-28T04:09:22.191Z,6.80
2018-06-28T04:11:49.500Z,6.20
2018-06-28T04:14:16.972Z,7.63
2018-06-28T04:16:44.257Z,6.50
2018-06-28T04:19:11.463Z,6.60
2018-06-28T04:21:38.768Z,6.53
2018-06-28T04:24:05.991Z,5.93
2018-06-28T04:26:33.494Z,8.57
2018-06-28T04:29:00.756Z,6.17
2018-06-28T04:31:28.302Z,6.27
2018-06-28T04:33:56.067Z,6.37
2018-06-28T04:36:23.368Z,6.07
2018-06-28T04:38:50.627Z,7.47
2018-06-28T04:41:17.855Z,5.77
2018-06-28T04:43:45.452Z,6.33
2018-06-28T04:46:12.714Z,6.57
2018-06-28T04:48:39.983Z,6.20
2018-06-28T04:51:07.252Z,7.23
2018-06-28T04:53:34.517Z,6.37
2018-06-28T04:56:01.805Z,7.63
2018-06-28T04:58:29.296Z,6.30
2018-06-28T05:00:56.561Z,6.93
2018-06-28T05:03:24.084Z,6.63
2018-06-28T05:05:51.354Z,7.23
2018-06-28T05:08:18.607Z,6.43
2018-06-28T05:10:45.959Z,6.70
2018-06-28T05:13:13.254Z,6.90
2018-06-28T05:15:40.499Z,6.37
2018-06-28T05:18:07.793Z,7.80
2018-06-28T05:20:35.123Z,6.60
2018-06-28T05:23:02.409Z,7.37
2018-06-28T05:25:29.661Z,6.77
2018-06-28T05:27:59.996Z,6.40
2018-06-28T05:30:30.320Z,7.07
2018-06-28T05:32:57.871Z,6.67
2018-06-28T05:35:25.270Z,6.60
2018-06-28T05:37:52.639Z,7.43
2018-06-28T05:40:19.927Z,6.47
2018-06-28T05:42:47.354Z,6.70
2018-06-28T05:45:14.627Z,8.40
2018-06-28T05:47:41.950Z,6.60
2018-06-28T05:50:09.210Z,6.10
2018-06-28T05:52:36.727Z,8.13
2018-06-28T05:55:05.024Z,6.47
2018-06-28T05:57:32.340Z,6.78
2018-06-28T05:59:59.638Z,6.35
2018-06-28T06:02:27.059Z,6.70
2018-06-28T06:04:54.999Z,6.90
2018-06-28T06:07:22.331Z,7.65
2018-06-28T06:09:49.607Z,7.78
2018-06-28T06:12:16.940Z,10.05
2018-06-28T06:14:44.244Z,6.95
2018-06-28T06:17:11.593Z,7.53
2018-06-28T06:19:38.861Z,7.95
2018-06-28T06:22:07.470Z,5.75
2018-06-28T06:24:34.856Z,9.35
2018-06-28T06:27:02.144Z,6.85
2018-06-28T06:29:29.510Z,6.00
2018-06-28T06:31:56.885Z,6.05
2018-06-28T06:34:24.296Z,8.18
2018-06-28T06:36:51.584Z,9.03
2018-06-28T06:39:18.863Z,10.90
2018-06-28T06:41:46.150Z,10.38
2018-06-28T06:44:16.416Z,12.35
2018-06-28T06:46:44.461Z,10.53
2018-06-28T06:49:11.755Z,7.47
2018-06-28T06:51:39.050Z,10.38
2018-06-28T06:54:06.505Z,6.08
2018-06-28T06:56:33.770Z,7.80
2018-06-28T06:59:01.071Z,7.78
2018-06-28T07:01:28.304Z,6.92
2018-06-28T07:03:55.546Z,9.65
2018-06-28T07:06:22.827Z,5.62
2018-06-28T07:08:50.079Z,10.30
2018-06-28T07:11:17.364Z,6.92
2018-06-28T07:13:44.623Z,10.00
2018-06-28T07:16:11.894Z,7.62
2018-06-28T07:18:39.131Z,7.25
2018-06-28T07:21:06.483Z,11.80
2018-06-28T07:23:35.662Z,8.18
2018-06-28T07:26:04.225Z,13.38
2018-06-28T07:28:31.548Z,8.13
2018-06-28T07:30:58.759Z,7.05
2018-06-28T07:33:26.009Z,7.00
2018-06-28T07:35:53.295Z,8.78
2018-06-28T07:38:22.008Z,5.90
2018-06-28T07:40:49.323Z,10.98
2018-06-28T07:43:16.620Z,5.25
2018-06-28T07:45:43.873Z,6.58
2018-06-28T07:48:11.128Z,8.68
2018-06-28T07:50:38.531Z,6.30
2018-06-28T07:53:05.822Z,6.87
2018-06-28T07:55:33.115Z,6.78
2018-06-28T07:58:00.841Z,8.43
2018-06-28T08:00:29.023Z,5.42
2018-06-28T08:02:56.496Z,4.85
2018-06-28T08:05:23.755Z,6.50
2018-06-28T08:07:51.040Z,8.85
2018-06-28T08:10:18.388Z,10.03
2018-06-28T08:12:45.667Z,5.87
2018-06-28T08:15:13.072Z,4.60
2018-06-28T08:17:41.076Z,4.85
2018-06-28T08:20:08.943Z,6.78
2018-06-28T08:22:36.348Z,5.15
2018-06-28T08:25:04.047Z,5.05
2018-06-28T08:27:38.292Z,5.95
2018-06-28T08:30:05.603Z,5.83
2018-06-28T08:32:33.242Z,4.25
2018-06-28T08:35:00.545Z,4.75
2018-06-28T08:37:27.832Z,5.90
2018-06-28T08:39:55.884Z,4.25
2018-06-28T08:42:23.173Z,4.22
2018-06-28T08:44:50.438Z,6.60
2018-06-28T08:47:20.055Z,5.75
2018-06-28T08:52:33.104Z,4.20
2018-06-28T08:55:02.870Z,7.62
2018-06-28T08:57:30.203Z,5.10
2018-06-28T08:59:58.047Z,4.72
2018-06-28T09:02:25.343Z,4.85
2018-06-28T09:04:52.617Z,4.60
2018-06-28T09:07:20.015Z,8.55
2018-06-28T09:09:51.639Z,4.55
2018-06-28T09:12:18.963Z,5.40
2018-06-28T09:14:46.236Z,4.20
2018-06-28T09:17:13.516Z,6.62
2018-06-28T09:19:41.980Z,4.22
2018-06-28T09:22:09.278Z,4.30
2018-06-28T09:24:36.540Z,5.35
2018-06-28T09:27:05.405Z,4.83
2018-06-28T09:29:32.688Z,4.70
2018-06-28T09:31:59.992Z,7.75
2018-06-28T09:34:27.252Z,7.83
2018-06-28T09:36:54.495Z,5.97
2018-06-28T09:39:21.842Z,10.25
2018-06-28T09:41:49.568Z,9.58
2018-06-28T09:44:16.842Z,7.42
2018-06-28T09:46:45.303Z,6.25
2018-06-28T09:49:14.215Z,6.22
2018-06-28T09:51:41.568Z,8.78
2018-06-28T09:54:08.862Z,6.83
2018-06-28T09:56:36.410Z,7.20
2018-06-28T09:59:04.147Z,6.75
2018-06-28T10:01:31.857Z,6.08
2018-06-28T10:03:59.613Z,6.08
2018-06-28T10:06:26.903Z,7.83
2018-06-28T10:08:54.155Z,4.30
2018-06-28T10:11:21.454Z,4.50
2018-06-28T10:13:48.739Z,5.55
2018-06-28T10:16:15.977Z,4.45
2018-06-28T10:18:43.384Z,5.70
2018-06-28T10:21:10.719Z,4.83
2018-06-28T10:23:38.088Z,4.47
2018-06-28T10:26:05.390Z,4.97
2018-06-28T10:28:32.723Z,4.40
2018-06-28T10:30:59.971Z,7.92
2018-06-28T10:33:27.246Z,4.12
2018-06-28T10:35:54.550Z,4.85
2018-06-28T10:38:21.843Z,4.28
2018-06-28T10:40:49.166Z,4.75
2018-06-28T10:43:28.362Z,5.53
2018-06-28T10:45:55.624Z,9.33
2018-06-28T10:48:22.878Z,6.45
2018-06-28T10:50:50.139Z,5.60
2018-06-28T10:53:17.405Z,5.08
2018-06-28T10:55:44.746Z,5.50
2018-06-28T10:58:12.861Z,4.00
2018-06-28T11:00:40.177Z,3.70
2018-06-28T11:03:07.493Z,3.70
2018-06-28T11:05:34.731Z,7.25
2018-06-28T11:08:02.001Z,4.92
2018-06-28T11:10:29.267Z,4.33
2018-06-28T11:12:56.503Z,4.20
2018-06-28T11:15:23.731Z,3.58
2018-06-28T11:17:51.024Z,7.15
2018-06-28T11:20:19.616Z,3.52
2018-06-28T11:22:46.893Z,7.25
2018-06-28T11:25:14.192Z,3.33
2018-06-28T11:27:43.819Z,3.30
2018-06-28T11:30:11.126Z,5.75
2018-06-28T11:32:38.354Z,4.58
2018-06-28T11:35:05.626Z,3.95
2018-06-28T11:37:33.024Z,6.05
2018-06-28T11:40:00.269Z,4.03
2018-06-28T11:42:33.525Z,5.12
2018-06-28T11:45:03.761Z,5.20
2018-06-28T11:47:31.190Z,6.10
2018-06-28T11:49:58.451Z,3.40
2018-06-28T11:52:25.716Z,5.05
2018-06-28T11:54:53.082Z,3.75
2018-06-28T11:57:20.336Z,7.30
2018-06-28T11:59:47.599Z,3.62
2018-06-28T12:02:14.874Z,3.37
2018-06-28T12:04:42.131Z,4.83
2018-06-28T12:07:09.445Z,6.15
2018-06-28T12:09:36.738Z,4.12
2018-06-28T12:12:04.317Z,5.55
2018-06-28T12:14:31.564Z,3.80
2018-06-28T12:16:58.787Z,6.28
2018-06-28T12:19:26.143Z,3.60
2018-06-28T12:21:53.392Z,4.67
2018-06-28T12:24:20.655Z,4.00
2018-06-28T12:26:47.921Z,3.55
2018-06-28T12:29:15.157Z,5.10
2018-06-28T12:31:42.418Z,5.47
2018-06-28T12:34:11.277Z,3.60
2018-06-28T12:36:38.546Z,4.28
2018-06-28T12:39:07.632Z,6.08
2018-06-28T12:41:34.967Z,4.10
2018-06-28T12:44:02.472Z,7.78
2018-06-28T12:47:45.143Z,5.75
2018-06-28T12:50:12.459Z,4.03
2018-06-28T12:52:53.411Z,4.08
2018-06-28T12:55:21.139Z,5.12
2018-06-28T12:57:48.790Z,5.45
2018-06-28T13:00:16.376Z,3.37
2018-06-28T13:02:44.095Z,5.42
2018-06-28T13:05:12.476Z,5.35
2018-06-28T13:07:40.172Z,4.50
2018-06-28T13:10:09.112Z,6.58
2018-06-28T13:12:36.810Z,3.87
2018-06-28T13:15:04.363Z,4.83
2018-06-28T13:17:31.712Z,6.78
2018-06-28T13:19:59.212Z,4.28
2018-06-28T13:25:15.659Z,4.17
2018-06-28T13:27:42.918Z,5.67
2018-06-28T13:30:10.373Z,4.58
2018-06-28T13:32:44.894Z,6.12
2018-06-28T13:35:12.525Z,8.03
2018-06-28T13:37:39.905Z,4.90
2018-06-28T13:40:07.200Z,4.85
2018-06-28T13:42:34.511Z,6.72
2018-06-28T13:45:01.861Z,6.42
2018-06-28T13:47:29.486Z,5.50
2018-06-28T13:50:00.216Z,4.33
2018-06-28T13:52:37.005Z,4.97
2018-06-28T13:55:07.105Z,4.47
2018-06-28T13:57:34.475Z,4.62
2018-06-28T14:00:01.783Z,8.10
2018-06-28T14:02:29.200Z,6.42
2018-06-28T14:04:56.539Z,7.12
2018-06-28T14:07:24.255Z,5.37
2018-06-28T14:09:51.804Z,4.65
2018-06-28T14:12:19.118Z,5.58
2018-06-28T14:14:46.440Z,7.10
2018-06-28T14:17:15.862Z,6.45
2018-06-28T14:19:43.262Z,5.42
2018-06-28T14:22:10.665Z,7.08
2018-06-28T14:24:37.832Z,8.23
2018-06-28T14:27:05.112Z,6.22
2018-06-28T14:29:32.432Z,6.45
2018-06-28T14:31:59.692Z,7.67
2018-06-28T14:34:26.986Z,6.70
2018-06-28T14:36:54.263Z,6.97
2018-06-28T14:39:21.580Z,7.00
2018-06-28T14:41:48.863Z,7.20
2018-06-28T14:44:16.079Z,9.63
2018-06-28T14:46:43.335Z,7.12
2018-06-28T14:49:10.612Z,8.28
2018-06-28T14:51:37.855Z,8.20
2018-06-28T14:54:05.135Z,7.67
2018-06-28T14:56:32.429Z,8.50
2018-06-28T14:59:00.326Z,9.25
2018-06-28T15:01:27.648Z,6.33
2018-06-28T15:03:55.514Z,7.87
2018-06-28T15:06:23.461Z,9.38
2018-06-28T15:08:50.830Z,7.20
2018-06-28T15:11:18.095Z,7.37
2018-06-28T15:13:45.403Z,7.50
2018-06-28T15:16:13.012Z,7.08
2018-06-28T15:18:40.303Z,7.17
2018-06-28T15:21:07.558Z,8.03
2018-06-28T15:23:34.825Z,9.20
2018-06-28T15:26:02.152Z,7.15
2018-06-28T15:28:29.439Z,8.50
2018-06-28T15:30:56.719Z,7.12
2018-06-28T15:33:24.008Z,7.15
2018-06-28T15:35:51.346Z,6.37
2018-06-28T15:38:18.596Z,7.37
2018-06-28T15:40:46.710Z,7.92
2018-06-28T15:43:18.016Z,6.25
2018-06-28T15:45:45.393Z,5.35
2018-06-28T15:48:12.608Z,5.12
2018-06-28T15:50:39.848Z,4.75
2018-06-28T15:53:07.123Z,4.95
2018-06-28T15:55:34.948Z,5.67
2018-06-28T15:58:02.266Z,5.03
2018-06-28T16:00:29.561Z,4.87
2018-06-28T16:02:57.255Z,7.15
2018-06-28T16:05:24.537Z,6.30
2018-06-28T16:07:51.875Z,4.83
2018-06-28T16:10:19.543Z,5.22
2018-06-28T16:12:46.806Z,6.45
2018-06-28T16:15:14.147Z,5.80
2018-06-28T16:17:41.440Z,6.30
2018-06-28T16:20:08.916Z,7.35
2018-06-28T16:22:36.205Z,5.70
2018-06-28T16:25:03.497Z,6.60
2018-06-28T16:27:30.778Z,6.90
2018-06-28T16:29:58.043Z,6.92
2018-06-28T16:32:25.435Z,6.12
2018-06-28T16:34:52.700Z,8.58
2018-06-28T16:37:20.168Z,5.97
2018-06-28T16:39:47.953Z,5.67
2018-06-28T16:42:15.871Z,6.65
2018-06-28T16:44:43.160Z,7.80
2018-06-28T16:47:10.479Z,6.70
2018-06-28T16:49:38.250Z,5.62
2018-06-28T16:52:07.527Z,5.83
2018-06-28T16:54:35.600Z,5.85
2018-06-28T16:57:02.965Z,6.37
2018-06-28T16:59:34.530Z,8.05
2018-06-28T17:02:02.824Z,5.90
2018-06-28T17:04:31.619Z,6.00
2018-06-28T17:07:00.046Z,6.70
2018-06-28T17:09:45.169Z,6.67
2018-06-28T17:12:12.431Z,6.75
2018-06-28T17:14:39.871Z,7.47
2018-06-28T17:17:07.498Z,7.25
2018-06-28T17:19:34.856Z,7.70
2018-06-28T17:22:02.201Z,9.93
2018-06-28T17:24:29.532Z,8.40
2018-06-28T17:26:56.897Z,7.75
2018-06-28T17:29:24.196Z,8.88
2018-06-28T17:31:51.643Z,8.25
2018-06-28T17:34:19.122Z,8.08
2018-06-28T17:36:46.623Z,8.85
2018-06-28T17:39:13.982Z,8.48
2018-06-28T17:41:41.284Z,8.13
2018-06-28T17:44:08.729Z,8.28
2018-06-28T17:46:36.040Z,9.40
2018-06-28T17:49:04.468Z,9.30
2018-06-28T17:51:31.900Z,9.08
2018-06-28T17:53:59.251Z,11.80
2018-06-28T17:56:27.172Z,10.68
2018-06-28T17:58:54.451Z,8.78
2018-06-28T18:01:21.800Z,10.20
2018-06-28T18:03:49.978Z,9.05
2018-06-28T18:06:17.270Z,9.15
2018-06-28T18:08:44.872Z,8.68
2018-06-28T18:11:12.183Z,9.58
2018-06-28T18:13:39.693Z,9.10
2018-06-28T18:16:07.045Z,9.75
2018-06-28T18:18:34.381Z,10.00
2018-06-28T18:21:01.668Z,10.03
2018-06-28T18:23:28.935Z,10.78
2018-06-28T18:25:56.808Z,9.63
2018-06-28T18:28:24.139Z,8.80
2018-06-28T18:30:51.652Z,10.88
2018-06-28T18:33:18.989Z,9.60
2018-06-28T18:35:46.454Z,10.18
2018-06-28T18:38:13.998Z,10.80
2018-06-28T18:40:41.364Z,10.18
2018-06-28T18:43:08.718Z,10.85
2018-06-28T18:45:36.057Z,10.58
2018-06-28T18:48:03.423Z,11.00
2018-06-28T18:50:30.719Z,10.63
2018-06-28T18:52:58.057Z,11.43
2018-06-28T18:55:25.364Z,11.35
2018-06-28T18:57:52.685Z,12.33
2018-06-28T19:00:20.028Z,11.22
2018-06-28T19:02:47.412Z,12.73
2018-06-28T19:05:14.704Z,11.90
2018-06-28T19:07:42.074Z,11.12
2018-06-28T19:10:14.920Z,11.20
2018-06-28T19:12:42.264Z,13.33
2018-06-28T19:15:15.379Z,12.47
2018-06-28T19:17:42.752Z,11.05
2018-06-28T19:20:10.163Z,12.75
2018-06-28T19:22:43.085Z,11.33
2018-06-28T19:25:10.418Z,11.25
2018-06-28T19:27:37.783Z,11.95
2018-06-28T19:30:10.851Z,11.38
2018-06-28T19:32:38.171Z,10.50
2018-06-28T19:35:05.480Z,11.25
2018-06-28T19:37:49.613Z,12.25
2018-06-28T19:40:22.599Z,10.17
2018-06-28T19:42:59.502Z,11.07
2018-06-28T19:45:26.965Z,9.77
2018-06-28T19:47:54.384Z,11.50
2018-06-28T19:50:27.349Z,10.30
2018-06-28T19:53:00.998Z,11.67
2018-06-28T19:55:28.364Z,10.43
2018-06-28T19:57:55.724Z,10.90
2018-06-28T20:00:28.737Z,11.40
2018-06-28T20:03:01.705Z,9.80
2018-06-28T20:05:29.188Z,12.03
2018-06-28T20:07:56.599Z,10.00
2018-06-28T20:10:24.131Z,10.40
2018-06-28T20:12:57.097Z,10.00
2018-06-28T20:16:01.076Z,9.63
2018-06-28T20:18:34.100Z,10.80
2018-06-28T20:21:02.176Z,11.57
2018-06-28T20:23:30.401Z,10.80
2018-06-28T20:25:57.796Z,10.70
2018-06-28T20:28:30.613Z,15.10
2018-06-28T20:31:03.540Z,9.83
2018-06-28T20:33:36.365Z,10.23
2018-06-28T20:36:03.784Z,10.70
2018-06-28T20:38:31.262Z,10.27
2018-06-28T20:40:58.705Z,10.30
2018-06-28T20:43:26.067Z,10.60
2018-06-28T20:45:53.379Z,11.00
2018-06-28T20:48:20.704Z,13.13
2018-06-28T20:50:48.468Z,11.57
2018-06-28T20:53:15.837Z,10.18
2018-06-28T20:55:43.151Z,10.63
2018-06-28T20:58:10.668Z,10.15
2018-06-28T21:00:38.074Z,10.43
2018-06-28T21:03:06.119Z,12.82
2018-06-28T21:05:33.507Z,10.80
2018-06-28T21:08:00.787Z,11.60
2018-06-28T21:10:28.619Z,11.63
2018-06-28T21:12:55.905Z,11.70
2018-06-28T21:15:23.392Z,11.88
2018-06-28T21:17:50.923Z,11.85
2018-06-28T21:20:18.198Z,12.15
2018-06-28T21:22:45.534Z,15.30
2018-06-28T21:25:13.073Z,14.85
2018-06-28T21:27:40.413Z,15.80
2018-06-28T21:30:07.920Z,15.50
2018-06-28T21:32:35.443Z,15.43
2018-06-28T21:35:02.868Z,17.77
2018-06-28T21:37:30.190Z,17.80
2018-06-28T21:39:57.584Z,19.50
2018-06-28T21:42:25.135Z,20.40
2018-06-28T21:44:52.440Z,20.92
2018-06-28T21:47:19.793Z,19.77
2018-06-28T21:49:50.353Z,18.85
2018-06-28T21:52:17.644Z,17.25
2018-06-28T21:54:46.712Z,18.67
2018-06-28T21:57:14.308Z,18.15
2018-06-28T21:59:41.655Z,16.52
2018-06-28T22:02:09.284Z,18.07
2018-06-28T22:04:36.530Z,18.67
2018-06-28T22:07:03.933Z,18.50
2018-06-28T22:09:31.213Z,18.73
2018-06-28T22:11:58.539Z,18.57
2018-06-28T22:14:25.903Z,22.20
2018-06-28T22:16:53.199Z,21.40
2018-06-28T22:19:20.599Z,19.13
2018-06-28T22:21:47.913Z,21.62
2018-06-28T22:24:15.215Z,19.25
2018-06-28T22:26:42.561Z,18.43
2018-06-28T22:29:10.059Z,21.27
2018-06-28T22:31:37.387Z,19.60
2018-06-28T22:34:04.918Z,17.80
2018-06-28T22:36:32.164Z,18.05
2018-06-28T22:38:59.456Z,18.93
2018-06-28T22:41:26.967Z,19.97
2018-06-28T22:43:54.339Z,22.75
2018-06-28T22:46:21.583Z,19.30
2018-06-28T22:48:48.923Z,19.55
2018-06-28T22:51:16.268Z,20.63
2018-06-28T22:53:43.592Z,23.07
2018-06-28T22:56:11.577Z,19.37
2018-06-28T22:58:38.915Z,18.30
2018-06-28T23:01:06.188Z,17.40
2018-06-28T23:03:33.496Z,17.70
2018-06-28T23:06:00.743Z,17.33
2018-06-28T23:08:28.136Z,17.43
2018-06-28T23:10:55.440Z,16.50
2018-06-28T23:13:22.785Z,15.20
2018-06-28T23:15:50.068Z,18.02
2018-06-28T23:18:17.334Z,18.65
2018-06-28T23:20:44.659Z,18.63
2018-06-28T23:23:12.773Z,17.60
2018-06-28T23:25:40.056Z,18.43
2018-06-28T23:28:07.311Z,17.25
2018-06-28T23:30:34.556Z,15.55
2018-06-28T23:33:01.908Z,17.13
2018-06-28T23:35:37.519Z,16.57
2018-06-28T23:38:04.961Z,17.00
2018-06-28T23:40:40.421Z,17.27
2018-06-28T23:43:07.844Z,18.37
2018-06-28T23:45:35.149Z,19.35
2018-06-28T23:48:02.411Z,20.60
2018-06-28T23:50:29.766Z,19.30
2018-06-28T23:52:57.022Z,19.62
2018-06-28T23:55:26.019Z,20.02
2018-06-28T23:57:53.573Z,21.73
